Aeroporto :







RITROVATECI SU...

 
LOGIN :

Iscrizione | Disclaimer

   EN    FR    IT 

 









Sommario :    VFR   VFR Marginale   IFR   IFR Intensivo   IFR Molto Intensivo
Visibilità : 
Base nubi : 
>= 8 km
>= 3000ft
5 / 8 km
1000 / 3000 ft
1500m / 5 km
500 / 1000 ft
800 / 1500m
200 / 500 ft
< 800m
< 200 ft
Simboli :   Temporali  Nebbia  Neve Forte  Precipitazioni Forti  Vento > 20 kt






- Altitudine del aeroporto : 141 ft
- Codice IATA : YQI


CYQI - Yarmouth

ULTIMO METAR :
  • 250700Z 10006KT 15SM OVC012 M00/M02 A3045 RMK ST8 SLP316

METARs OBSOLETI :
  • 250600Z 09006KT 15SM OVC012 M01/M02 A3045 RMK ST8 SLP315
  • 250511Z 08005KT 15SM BKN013 BKN230 M02/M03 A3046 RMK SC5CI2 SLP318
  • 250500Z 09004KT 15SM SCT240 M02/M03 A3046 RMK CI4 SLP317

TAF TAF CYQI
Valido dal 25 a 06 ore il 25 a 18 ore UTC


250538Z 2506/2518 09005KT P6SM FEW020 SCT240
TEMPO 2506/2514 BKN020
PROB30 2506/2514 2SM BR BKN008
FM251400 12010KT P6SM BKN015
TEMPO 2514/2516 SCT015
FM251600 11012KT P6SM FEW020 RMK NXT FCST BY 251200Z



MetMap, La meteo Aeronautica in un colpo d'occhio ! - Copyright ORBIFLY Dicembre 2007 - Disclaimer

ORBIFLY MET'MAP TEAM :

Programmazione e sviluppo : Alexandra Zaïnal
Concezione : Baudouin d'Aumeries
Aiuto per la programmazione : Marc-Olivier Méhu
Supporto tecnico e logistico : Manuel Goepfert
Aiuto per la traduzione : Arnaldo La Scala

Contatto : metmap@orbifly.com




FONTI E CREDITI :

   NOAA